sensor_id;sensor_type;location;lat;lon;timestamp;P1;durP1;ratioP1;P2;durP2;ratioP2
46355;SDS011;32066;49.474;11.106;2022-11-04T00:01:23;23.75;;;14.20;;
46355;SDS011;32066;49.474;11.106;2022-11-04T00:03:51;19.92;;;13.65;;
46355;SDS011;32066;49.474;11.106;2022-11-04T00:06:20;23.80;;;14.25;;
46355;SDS011;32066;49.474;11.106;2022-11-04T00:08:47;22.38;;;13.73;;
46355;SDS011;32066;49.474;11.106;2022-11-04T00:11:15;21.17;;;13.90;;
46355;SDS011;32066;49.474;11.106;2022-11-04T00:13:59;22.90;;;14.90;;
46355;SDS011;32066;49.474;11.106;2022-11-04T00:16:27;23.48;;;14.13;;
46355;SDS011;32066;49.474;11.106;2022-11-04T00:19:11;23.10;;;13.85;;
46355;SDS011;32066;49.474;11.106;2022-11-04T00:21:40;20.70;;;13.20;;
46355;SDS011;32066;49.474;11.106;2022-11-04T00:24:24;22.10;;;13.30;;
46355;SDS011;32066;49.474;11.106;2022-11-04T00:27:17;20.00;;;12.77;;
46355;SDS011;32066;49.474;11.106;2022-11-04T00:30:03;18.45;;;11.73;;
46355;SDS011;32066;49.474;11.106;2022-11-04T00:32:32;18.38;;;12.68;;
46355;SDS011;32066;49.474;11.106;2022-11-04T00:35:17;18.45;;;12.07;;
46355;SDS011;32066;49.474;11.106;2022-11-04T00:37:45;22.95;;;12.00;;
46355;SDS011;32066;49.474;11.106;2022-11-04T00:40:13;17.17;;;11.75;;
46355;SDS011;32066;49.474;11.106;2022-11-04T00:42:42;18.98;;;12.18;;
46355;SDS011;32066;49.474;11.106;2022-11-04T00:45:10;19.38;;;11.57;;
46355;SDS011;32066;49.474;11.106;2022-11-04T00:47:37;17.45;;;11.82;;
46355;SDS011;32066;49.474;11.106;2022-11-04T00:50:05;17.73;;;11.20;;
46355;SDS011;32066;49.474;11.106;2022-11-04T00:52:33;21.27;;;11.10;;
46355;SDS011;32066;49.474;11.106;2022-11-04T00:55:01;16.42;;;10.13;;
46355;SDS011;32066;49.474;11.106;2022-11-04T00:57:29;16.00;;;10.18;;
46355;SDS011;32066;49.474;11.106;2022-11-04T00:59:56;13.82;;;9.70;;
46355;SDS011;32066;49.474;11.106;2022-11-04T01:02:22;14.57;;;9.60;;
46355;SDS011;32066;49.474;11.106;2022-11-04T01:04:49;13.18;;;8.57;;
46355;SDS011;32066;49.474;11.106;2022-11-04T01:07:16;13.88;;;9.15;;
46355;SDS011;32066;49.474;11.106;2022-11-04T01:09:43;13.35;;;8.45;;
46355;SDS011;32066;49.474;11.106;2022-11-04T01:12:11;12.57;;;8.75;;
46355;SDS011;32066;49.474;11.106;2022-11-04T01:14:38;13.82;;;7.38;;
46355;SDS011;32066;49.474;11.106;2022-11-04T01:17:05;13.15;;;7.63;;
46355;SDS011;32066;49.474;11.106;2022-11-04T01:19:32;14.55;;;7.20;;
46355;SDS011;32066;49.474;11.106;2022-11-04T01:21:59;12.68;;;7.28;;
46355;SDS011;32066;49.474;11.106;2022-11-04T01:24:26;10.60;;;6.30;;
46355;SDS011;32066;49.474;11.106;2022-11-04T01:26:53;11.05;;;6.10;;
46355;SDS011;32066;49.474;11.106;2022-11-04T01:29:21;8.27;;;5.78;;
46355;SDS011;32066;49.474;11.106;2022-11-04T01:31:48;10.88;;;5.45;;
46355;SDS011;32066;49.474;11.106;2022-11-04T01:34:15;9.13;;;6.07;;
46355;SDS011;32066;49.474;11.106;2022-11-04T01:36:42;8.88;;;5.28;;
46355;SDS011;32066;49.474;11.106;2022-11-04T01:39:08;10.00;;;5.53;;
46355;SDS011;32066;49.474;11.106;2022-11-04T01:41:37;8.40;;;4.97;;
46355;SDS011;32066;49.474;11.106;2022-11-04T01:47:07;9.75;;;5.13;;
46355;SDS011;32066;49.474;11.106;2022-11-04T01:49:39;8.07;;;4.97;;
46355;SDS011;32066;49.474;11.106;2022-11-04T01:52:07;8.15;;;5.10;;
46355;SDS011;32066;49.474;11.106;2022-11-04T01:54:37;8.70;;;4.57;;
46355;SDS011;32066;49.474;11.106;2022-11-04T01:57:06;6.97;;;4.25;;
46355;SDS011;32066;49.474;11.106;2022-11-04T01:59:39;7.53;;;4.35;;
46355;SDS011;32066;49.474;11.106;2022-11-04T02:02:08;8.65;;;4.30;;
46355;SDS011;32066;49.474;11.106;2022-11-04T02:04:35;6.97;;;4.10;;
46355;SDS011;32066;49.474;11.106;2022-11-04T02:07:05;10.90;;;4.03;;
46355;SDS011;32066;49.474;11.106;2022-11-04T02:09:35;8.10;;;3.38;;
46355;SDS011;32066;49.474;11.106;2022-11-04T02:12:03;7.35;;;3.60;;
46355;SDS011;32066;49.474;11.106;2022-11-04T02:14:48;6.80;;;3.28;;
46355;SDS011;32066;49.474;11.106;2022-11-04T02:17:22;8.40;;;3.33;;
46355;SDS011;32066;49.474;11.106;2022-11-04T02:20:00;5.00;;;2.95;;
46355;SDS011;32066;49.474;11.106;2022-11-04T02:22:48;5.60;;;2.80;;
46355;SDS011;32066;49.474;11.106;2022-11-04T02:25:35;6.03;;;2.58;;
46355;SDS011;32066;49.474;11.106;2022-11-04T02:28:24;5.13;;;2.28;;
46355;SDS011;32066;49.474;11.106;2022-11-04T02:31:07;5.63;;;2.20;;
46355;SDS011;32066;49.474;11.106;2022-11-04T02:33:40;4.30;;;2.00;;
46355;SDS011;32066;49.474;11.106;2022-11-04T02:36:17;5.28;;;2.00;;
46355;SDS011;32066;49.474;11.106;2022-11-04T02:38:59;5.93;;;2.20;;
46355;SDS011;32066;49.474;11.106;2022-11-04T02:41:34;4.60;;;2.08;;
46355;SDS011;32066;49.474;11.106;2022-11-04T02:44:09;4.30;;;2.20;;
46355;SDS011;32066;49.474;11.106;2022-11-04T02:46:44;4.30;;;1.80;;
46355;SDS011;32066;49.474;11.106;2022-11-04T02:49:16;4.20;;;2.10;;
46355;SDS011;32066;49.474;11.106;2022-11-04T02:51:47;4.25;;;1.90;;
46355;SDS011;32066;49.474;11.106;2022-11-04T02:54:19;4.72;;;1.88;;
46355;SDS011;32066;49.474;11.106;2022-11-04T02:56:49;4.43;;;1.92;;
46355;SDS011;32066;49.474;11.106;2022-11-04T02:59:19;5.32;;;2.10;;
46355;SDS011;32066;49.474;11.106;2022-11-04T03:01:53;5.25;;;2.10;;
46355;SDS011;32066;49.474;11.106;2022-11-04T03:04:23;4.32;;;1.88;;
46355;SDS011;32066;49.474;11.106;2022-11-04T03:06:53;3.60;;;1.70;;
46355;SDS011;32066;49.474;11.106;2022-11-04T03:09:22;4.22;;;1.73;;
46355;SDS011;32066;49.474;11.106;2022-11-04T03:11:52;5.03;;;1.70;;
46355;SDS011;32066;49.474;11.106;2022-11-04T03:14:23;3.97;;;1.83;;
46355;SDS011;32066;49.474;11.106;2022-11-04T03:16:56;4.57;;;1.95;;
46355;SDS011;32066;49.474;11.106;2022-11-04T03:19:28;3.75;;;1.90;;
46355;SDS011;32066;49.474;11.106;2022-11-04T03:22:01;4.50;;;1.80;;
46355;SDS011;32066;49.474;11.106;2022-11-04T03:24:32;3.65;;;1.50;;
46355;SDS011;32066;49.474;11.106;2022-11-04T03:27:00;4.13;;;1.50;;
46355;SDS011;32066;49.474;11.106;2022-11-04T03:29:31;3.78;;;1.50;;
46355;SDS011;32066;49.474;11.106;2022-11-04T03:32:05;4.13;;;1.80;;
46355;SDS011;32066;49.474;11.106;2022-11-04T03:34:36;5.75;;;1.48;;
46355;SDS011;32066;49.474;11.106;2022-11-04T03:37:03;4.50;;;1.60;;
46355;SDS011;32066;49.474;11.106;2022-11-04T03:39:30;3.28;;;1.50;;
46355;SDS011;32066;49.474;11.106;2022-11-04T03:41:58;4.18;;;1.55;;
46355;SDS011;32066;49.474;11.106;2022-11-04T03:44:44;4.85;;;1.73;;
46355;SDS011;32066;49.474;11.106;2022-11-04T03:47:13;5.00;;;1.60;;
46355;SDS011;32066;49.474;11.106;2022-11-04T03:49:40;3.72;;;1.60;;
46355;SDS011;32066;49.474;11.106;2022-11-04T03:52:07;3.20;;;1.30;;
46355;SDS011;32066;49.474;11.106;2022-11-04T03:54:34;4.65;;;1.50;;
46355;SDS011;32066;49.474;11.106;2022-11-04T03:57:05;3.78;;;1.45;;
46355;SDS011;32066;49.474;11.106;2022-11-04T04:00:03;5.05;;;1.50;;
46355;SDS011;32066;49.474;11.106;2022-11-04T04:02:37;4.03;;;1.35;;
46355;SDS011;32066;49.474;11.106;2022-11-04T04:05:22;4.28;;;1.67;;
46355;SDS011;32066;49.474;11.106;2022-11-04T04:07:53;4.10;;;1.65;;
46355;SDS011;32066;49.474;11.106;2022-11-04T04:10:29;3.92;;;1.40;;
46355;SDS011;32066;49.474;11.106;2022-11-04T04:13:07;4.68;;;1.55;;
46355;SDS011;32066;49.474;11.106;2022-11-04T04:15:43;4.22;;;1.65;;
46355;SDS011;32066;49.474;11.106;2022-11-04T04:18:15;4.13;;;1.55;;
46355;SDS011;32066;49.474;11.106;2022-11-04T04:20:49;4.05;;;1.60;;
46355;SDS011;32066;49.474;11.106;2022-11-04T04:23:20;4.03;;;1.80;;
46355;SDS011;32066;49.474;11.106;2022-11-04T04:26:08;4.57;;;1.60;;
46355;SDS011;32066;49.474;11.106;2022-11-04T04:29:00;3.75;;;1.42;;
46355;SDS011;32066;49.474;11.106;2022-11-04T04:31:30;4.40;;;2.13;;
46355;SDS011;32066;49.474;11.106;2022-11-04T04:34:21;4.80;;;2.17;;
46355;SDS011;32066;49.474;11.106;2022-11-04T04:36:52;5.60;;;1.70;;
46355;SDS011;32066;49.474;11.106;2022-11-04T04:39:23;6.25;;;1.65;;
46355;SDS011;32066;49.474;11.106;2022-11-04T04:42:12;4.75;;;1.40;;
46355;SDS011;32066;49.474;11.106;2022-11-04T04:44:56;3.25;;;1.40;;
46355;SDS011;32066;49.474;11.106;2022-11-04T04:47:29;4.07;;;1.60;;
46355;SDS011;32066;49.474;11.106;2022-11-04T04:50:01;3.33;;;1.33;;
46355;SDS011;32066;49.474;11.106;2022-11-04T04:52:29;5.40;;;1.80;;
46355;SDS011;32066;49.474;11.106;2022-11-04T04:54:57;5.05;;;1.50;;
46355;SDS011;32066;49.474;11.106;2022-11-04T04:57:24;4.10;;;1.48;;
46355;SDS011;32066;49.474;11.106;2022-11-04T04:59:51;4.72;;;1.38;;
46355;SDS011;32066;49.474;11.106;2022-11-04T05:02:18;3.70;;;1.50;;
46355;SDS011;32066;49.474;11.106;2022-11-04T05:04:45;4.30;;;1.70;;
46355;SDS011;32066;49.474;11.106;2022-11-04T05:07:13;4.13;;;1.60;;
46355;SDS011;32066;49.474;11.106;2022-11-04T05:09:40;4.45;;;1.50;;
46355;SDS011;32066;49.474;11.106;2022-11-04T05:12:07;3.97;;;1.58;;
46355;SDS011;32066;49.474;11.106;2022-11-04T05:14:34;5.15;;;1.77;;
46355;SDS011;32066;49.474;11.106;2022-11-04T05:17:01;6.95;;;1.90;;
46355;SDS011;32066;49.474;11.106;2022-11-04T05:19:27;5.30;;;1.40;;
46355;SDS011;32066;49.474;11.106;2022-11-04T05:21:54;3.95;;;1.58;;
46355;SDS011;32066;49.474;11.106;2022-11-04T05:24:25;4.18;;;1.90;;
46355;SDS011;32066;49.474;11.106;2022-11-04T05:26:52;4.78;;;1.73;;
46355;SDS011;32066;49.474;11.106;2022-11-04T05:29:19;4.97;;;1.80;;
46355;SDS011;32066;49.474;11.106;2022-11-04T05:31:46;4.75;;;1.50;;
46355;SDS011;32066;49.474;11.106;2022-11-04T05:34:13;4.55;;;1.70;;
46355;SDS011;32066;49.474;11.106;2022-11-04T05:36:40;6.97;;;3.35;;
46355;SDS011;32066;49.474;11.106;2022-11-04T05:39:09;5.55;;;1.90;;
46355;SDS011;32066;49.474;11.106;2022-11-04T05:41:41;5.57;;;1.88;;
46355;SDS011;32066;49.474;11.106;2022-11-04T05:44:08;5.07;;;2.45;;
46355;SDS011;32066;49.474;11.106;2022-11-04T05:46:36;4.50;;;2.22;;
46355;SDS011;32066;49.474;11.106;2022-11-04T05:49:03;8.32;;;2.30;;
46355;SDS011;32066;49.474;11.106;2022-11-04T05:51:30;4.50;;;1.85;;
46355;SDS011;32066;49.474;11.106;2022-11-04T05:53:57;5.40;;;2.85;;
46355;SDS011;32066;49.474;11.106;2022-11-04T05:56:25;4.60;;;2.03;;
46355;SDS011;32066;49.474;11.106;2022-11-04T05:58:54;4.60;;;2.05;;
46355;SDS011;32066;49.474;11.106;2022-11-04T06:01:25;3.78;;;1.90;;
46355;SDS011;32066;49.474;11.106;2022-11-04T06:03:54;5.97;;;2.72;;
46355;SDS011;32066;49.474;11.106;2022-11-04T06:06:22;5.38;;;1.98;;
46355;SDS011;32066;49.474;11.106;2022-11-04T06:08:50;5.45;;;2.03;;
46355;SDS011;32066;49.474;11.106;2022-11-04T06:11:18;5.72;;;2.20;;
46355;SDS011;32066;49.474;11.106;2022-11-04T06:13:46;6.55;;;2.10;;
46355;SDS011;32066;49.474;11.106;2022-11-04T06:16:14;6.28;;;2.10;;
46355;SDS011;32066;49.474;11.106;2022-11-04T06:18:41;5.20;;;2.28;;
46355;SDS011;32066;49.474;11.106;2022-11-04T06:21:09;5.30;;;2.15;;
46355;SDS011;32066;49.474;11.106;2022-11-04T06:23:46;5.30;;;2.20;;
46355;SDS011;32066;49.474;11.106;2022-11-04T06:26:13;6.30;;;2.10;;
46355;SDS011;32066;49.474;11.106;2022-11-04T06:28:40;4.15;;;2.05;;
46355;SDS011;32066;49.474;11.106;2022-11-04T06:31:08;6.75;;;2.47;;
46355;SDS011;32066;49.474;11.106;2022-11-04T06:33:38;6.18;;;2.15;;
46355;SDS011;32066;49.474;11.106;2022-11-04T06:36:05;6.90;;;2.58;;
46355;SDS011;32066;49.474;11.106;2022-11-04T06:38:34;6.53;;;2.60;;
46355;SDS011;32066;49.474;11.106;2022-11-04T06:41:02;5.43;;;2.50;;
46355;SDS011;32066;49.474;11.106;2022-11-04T06:43:29;6.78;;;2.97;;
46355;SDS011;32066;49.474;11.106;2022-11-04T06:45:56;5.28;;;2.40;;
46355;SDS011;32066;49.474;11.106;2022-11-04T06:48:25;10.07;;;2.70;;
46355;SDS011;32066;49.474;11.106;2022-11-04T06:50:56;5.80;;;2.60;;
46355;SDS011;32066;49.474;11.106;2022-11-04T06:53:23;7.85;;;3.03;;
46355;SDS011;32066;49.474;11.106;2022-11-04T06:55:50;5.53;;;2.45;;
46355;SDS011;32066;49.474;11.106;2022-11-04T06:58:17;6.85;;;2.72;;
46355;SDS011;32066;49.474;11.106;2022-11-04T07:00:49;6.20;;;2.30;;
46355;SDS011;32066;49.474;11.106;2022-11-04T07:03:17;7.00;;;2.70;;
46355;SDS011;32066;49.474;11.106;2022-11-04T07:05:44;6.30;;;2.45;;
46355;SDS011;32066;49.474;11.106;2022-11-04T07:08:12;7.18;;;2.65;;
46355;SDS011;32066;49.474;11.106;2022-11-04T07:10:39;5.28;;;2.33;;
46355;SDS011;32066;49.474;11.106;2022-11-04T07:13:06;6.40;;;2.45;;
46355;SDS011;32066;49.474;11.106;2022-11-04T07:15:33;7.90;;;2.30;;
46355;SDS011;32066;49.474;11.106;2022-11-04T07:18:00;4.97;;;1.70;;
46355;SDS011;32066;49.474;11.106;2022-11-04T07:20:27;7.22;;;1.90;;
46355;SDS011;32066;49.474;11.106;2022-11-04T07:22:54;5.50;;;1.60;;
46355;SDS011;32066;49.474;11.106;2022-11-04T07:25:22;6.30;;;1.52;;
46355;SDS011;32066;49.474;11.106;2022-11-04T07:27:49;5.78;;;1.80;;
46355;SDS011;32066;49.474;11.106;2022-11-04T07:30:16;5.82;;;1.40;;
46355;SDS011;32066;49.474;11.106;2022-11-04T07:32:44;3.35;;;1.40;;
46355;SDS011;32066;49.474;11.106;2022-11-04T07:35:12;5.57;;;2.28;;
46355;SDS011;32066;49.474;11.106;2022-11-04T07:37:39;9.05;;;2.60;;
46355;SDS011;32066;49.474;11.106;2022-11-04T07:40:07;6.43;;;2.10;;
46355;SDS011;32066;49.474;11.106;2022-11-04T07:42:36;6.25;;;1.83;;
46355;SDS011;32066;49.474;11.106;2022-11-04T07:45:06;4.85;;;1.80;;
46355;SDS011;32066;49.474;11.106;2022-11-04T07:47:33;6.78;;;1.70;;
46355;SDS011;32066;49.474;11.106;2022-11-04T07:50:00;6.25;;;1.92;;
46355;SDS011;32066;49.474;11.106;2022-11-04T07:52:27;5.60;;;1.80;;
46355;SDS011;32066;49.474;11.106;2022-11-04T07:54:54;6.55;;;1.70;;
46355;SDS011;32066;49.474;11.106;2022-11-04T07:57:21;7.50;;;1.55;;
46355;SDS011;32066;49.474;11.106;2022-11-04T07:59:49;6.00;;;1.50;;
46355;SDS011;32066;49.474;11.106;2022-11-04T08:02:16;9.02;;;2.03;;
46355;SDS011;32066;49.474;11.106;2022-11-04T08:04:42;7.28;;;1.80;;
46355;SDS011;32066;49.474;11.106;2022-11-04T08:07:09;4.72;;;1.40;;
46355;SDS011;32066;49.474;11.106;2022-11-04T08:09:36;4.95;;;1.77;;
46355;SDS011;32066;49.474;11.106;2022-11-04T08:12:03;6.00;;;1.60;;
46355;SDS011;32066;49.474;11.106;2022-11-04T08:14:31;5.13;;;1.90;;
46355;SDS011;32066;49.474;11.106;2022-11-04T08:16:59;9.77;;;2.30;;
46355;SDS011;32066;49.474;11.106;2022-11-04T08:19:26;5.78;;;1.73;;
46355;SDS011;32066;49.474;11.106;2022-11-04T08:21:53;6.82;;;2.10;;
46355;SDS011;32066;49.474;11.106;2022-11-04T08:24:20;5.50;;;2.28;;
46355;SDS011;32066;49.474;11.106;2022-11-04T08:26:47;5.47;;;2.30;;
46355;SDS011;32066;49.474;11.106;2022-11-04T08:29:13;8.43;;;2.70;;
46355;SDS011;32066;49.474;11.106;2022-11-04T08:31:41;10.20;;;3.05;;
46355;SDS011;32066;49.474;11.106;2022-11-04T08:34:09;6.35;;;2.53;;
46355;SDS011;32066;49.474;11.106;2022-11-04T08:36:38;9.40;;;2.75;;
46355;SDS011;32066;49.474;11.106;2022-11-04T08:39:07;11.10;;;2.40;;
46355;SDS011;32066;49.474;11.106;2022-11-04T08:41:34;9.00;;;2.60;;
46355;SDS011;32066;49.474;11.106;2022-11-04T08:44:03;7.20;;;2.22;;
46355;SDS011;32066;49.474;11.106;2022-11-04T08:46:31;6.28;;;2.40;;
46355;SDS011;32066;49.474;11.106;2022-11-04T08:48:59;5.90;;;2.38;;
46355;SDS011;32066;49.474;11.106;2022-11-04T08:51:29;11.60;;;2.50;;
46355;SDS011;32066;49.474;11.106;2022-11-04T08:53:57;7.07;;;1.85;;
46355;SDS011;32066;49.474;11.106;2022-11-04T08:56:26;8.43;;;2.40;;
46355;SDS011;32066;49.474;11.106;2022-11-04T08:58:55;6.75;;;1.90;;
46355;SDS011;32066;49.474;11.106;2022-11-04T09:01:23;5.95;;;1.70;;
46355;SDS011;32066;49.474;11.106;2022-11-04T09:03:51;6.97;;;1.80;;
46355;SDS011;32066;49.474;11.106;2022-11-04T09:06:19;8.02;;;2.05;;
46355;SDS011;32066;49.474;11.106;2022-11-04T09:08:49;8.18;;;2.13;;
46355;SDS011;32066;49.474;11.106;2022-11-04T09:11:19;9.73;;;2.55;;
46355;SDS011;32066;49.474;11.106;2022-11-04T09:13:46;13.48;;;2.35;;
46355;SDS011;32066;49.474;11.106;2022-11-04T09:16:13;6.18;;;2.03;;
46355;SDS011;32066;49.474;11.106;2022-11-04T09:18:40;8.57;;;2.60;;
46355;SDS011;32066;49.474;11.106;2022-11-04T09:21:08;7.80;;;2.28;;
46355;SDS011;32066;49.474;11.106;2022-11-04T09:23:36;7.35;;;1.98;;
46355;SDS011;32066;49.474;11.106;2022-11-04T09:26:05;10.30;;;2.70;;
46355;SDS011;32066;49.474;11.106;2022-11-04T09:28:33;9.50;;;2.20;;
46355;SDS011;32066;49.474;11.106;2022-11-04T09:31:03;7.80;;;2.28;;
46355;SDS011;32066;49.474;11.106;2022-11-04T09:33:31;7.85;;;2.08;;
46355;SDS011;32066;49.474;11.106;2022-11-04T09:35:58;6.07;;;2.00;;
46355;SDS011;32066;49.474;11.106;2022-11-04T09:38:25;9.48;;;2.30;;
46355;SDS011;32066;49.474;11.106;2022-11-04T09:40:52;9.00;;;1.90;;
46355;SDS011;32066;49.474;11.106;2022-11-04T09:43:25;7.47;;;2.40;;
46355;SDS011;32066;49.474;11.106;2022-11-04T09:46:02;9.40;;;2.60;;
46355;SDS011;32066;49.474;11.106;2022-11-04T09:48:31;7.72;;;2.00;;
46355;SDS011;32066;49.474;11.106;2022-11-04T09:51:02;5.55;;;1.80;;
46355;SDS011;32066;49.474;11.106;2022-11-04T09:53:34;8.20;;;2.22;;
46355;SDS011;32066;49.474;11.106;2022-11-04T09:56:07;8.57;;;2.00;;
46355;SDS011;32066;49.474;11.106;2022-11-04T09:58:41;7.97;;;3.03;;
46355;SDS011;32066;49.474;11.106;2022-11-04T10:01:11;8.32;;;2.45;;
46355;SDS011;32066;49.474;11.106;2022-11-04T10:03:47;7.35;;;1.98;;
46355;SDS011;32066;49.474;11.106;2022-11-04T10:06:31;8.95;;;2.20;;
46355;SDS011;32066;49.474;11.106;2022-11-04T10:09:14;9.88;;;2.38;;
46355;SDS011;32066;49.474;11.106;2022-11-04T10:11:51;8.85;;;2.10;;
46355;SDS011;32066;49.474;11.106;2022-11-04T10:14:37;7.18;;;2.10;;
46355;SDS011;32066;49.474;11.106;2022-11-04T10:17:25;7.60;;;1.95;;
46355;SDS011;32066;49.474;11.106;2022-11-04T10:20:11;10.90;;;2.30;;
46355;SDS011;32066;49.474;11.106;2022-11-04T10:22:54;5.68;;;1.85;;
46355;SDS011;32066;49.474;11.106;2022-11-04T10:25:24;8.73;;;2.00;;
46355;SDS011;32066;49.474;11.106;2022-11-04T10:27:57;6.35;;;1.90;;
46355;SDS011;32066;49.474;11.106;2022-11-04T10:30:26;8.95;;;2.05;;
46355;SDS011;32066;49.474;11.106;2022-11-04T10:32:58;8.73;;;2.00;;
46355;SDS011;32066;49.474;11.106;2022-11-04T10:35:31;10.35;;;1.92;;
46355;SDS011;32066;49.474;11.106;2022-11-04T10:38:09;8.65;;;2.20;;
46355;SDS011;32066;49.474;11.106;2022-11-04T10:40:43;8.75;;;2.00;;
46355;SDS011;32066;49.474;11.106;2022-11-04T10:43:15;7.78;;;2.10;;
46355;SDS011;32066;49.474;11.106;2022-11-04T10:45:52;6.45;;;1.60;;
46355;SDS011;32066;49.474;11.106;2022-11-04T10:48:37;8.85;;;2.00;;
46355;SDS011;32066;49.474;11.106;2022-11-04T10:51:10;7.82;;;1.80;;
46355;SDS011;32066;49.474;11.106;2022-11-04T10:53:37;7.35;;;2.00;;
46355;SDS011;32066;49.474;11.106;2022-11-04T10:56:06;11.30;;;2.10;;
46355;SDS011;32066;49.474;11.106;2022-11-04T10:58:38;8.70;;;2.00;;
46355;SDS011;32066;49.474;11.106;2022-11-04T11:01:24;6.32;;;2.03;;
46355;SDS011;32066;49.474;11.106;2022-11-04T11:03:53;14.65;;;2.13;;
46355;SDS011;32066;49.474;11.106;2022-11-04T11:06:24;6.35;;;1.88;;
46355;SDS011;32066;49.474;11.106;2022-11-04T11:08:54;8.75;;;1.90;;
46355;SDS011;32066;49.474;11.106;2022-11-04T11:11:37;7.82;;;2.00;;
46355;SDS011;32066;49.474;11.106;2022-11-04T11:14:16;6.23;;;2.00;;
46355;SDS011;32066;49.474;11.106;2022-11-04T11:16:45;6.45;;;2.20;;
46355;SDS011;32066;49.474;11.106;2022-11-04T11:19:14;7.65;;;2.15;;
46355;SDS011;32066;49.474;11.106;2022-11-04T11:21:43;5.80;;;1.70;;
46355;SDS011;32066;49.474;11.106;2022-11-04T11:24:14;10.55;;;2.10;;
46355;SDS011;32066;49.474;11.106;2022-11-04T11:26:44;5.70;;;1.70;;
46355;SDS011;32066;49.474;11.106;2022-11-04T11:29:16;10.63;;;2.55;;
46355;SDS011;32066;49.474;11.106;2022-11-04T11:31:47;7.45;;;1.92;;
46355;SDS011;32066;49.474;11.106;2022-11-04T11:34:18;10.82;;;1.95;;
46355;SDS011;32066;49.474;11.106;2022-11-04T11:36:50;4.60;;;1.75;;
46355;SDS011;32066;49.474;11.106;2022-11-04T11:39:19;6.47;;;1.70;;
46355;SDS011;32066;49.474;11.106;2022-11-04T11:41:49;6.35;;;2.10;;
46355;SDS011;32066;49.474;11.106;2022-11-04T11:44:22;8.80;;;1.70;;
46355;SDS011;32066;49.474;11.106;2022-11-04T11:46:57;6.20;;;1.60;;
46355;SDS011;32066;49.474;11.106;2022-11-04T11:49:27;8.32;;;1.98;;
46355;SDS011;32066;49.474;11.106;2022-11-04T11:52:15;7.53;;;1.60;;
46355;SDS011;32066;49.474;11.106;2022-11-04T11:54:50;8.90;;;1.67;;
46355;SDS011;32066;49.474;11.106;2022-11-04T11:57:25;6.50;;;1.48;;
46355;SDS011;32066;49.474;11.106;2022-11-04T11:59:59;6.82;;;2.00;;
46355;SDS011;32066;49.474;11.106;2022-11-04T12:02:41;6.20;;;1.88;;
46355;SDS011;32066;49.474;11.106;2022-11-04T12:05:13;5.97;;;1.70;;
46355;SDS011;32066;49.474;11.106;2022-11-04T12:07:43;6.55;;;2.00;;
46355;SDS011;32066;49.474;11.106;2022-11-04T12:10:19;5.18;;;1.55;;
46355;SDS011;32066;49.474;11.106;2022-11-04T12:12:59;8.50;;;2.03;;
46355;SDS011;32066;49.474;11.106;2022-11-04T12:15:34;10.23;;;2.38;;
46355;SDS011;32066;49.474;11.106;2022-11-04T12:18:24;8.80;;;2.10;;
46355;SDS011;32066;49.474;11.106;2022-11-04T12:21:18;8.52;;;1.85;;
46355;SDS011;32066;49.474;11.106;2022-11-04T12:23:52;7.05;;;1.60;;
46355;SDS011;32066;49.474;11.106;2022-11-04T12:26:24;5.97;;;1.50;;
46355;SDS011;32066;49.474;11.106;2022-11-04T12:29:01;5.60;;;1.30;;
46355;SDS011;32066;49.474;11.106;2022-11-04T12:31:40;7.00;;;1.60;;
46355;SDS011;32066;49.474;11.106;2022-11-04T12:34:17;8.65;;;2.20;;
46355;SDS011;32066;49.474;11.106;2022-11-04T12:36:55;8.40;;;1.55;;
46355;SDS011;32066;49.474;11.106;2022-11-04T12:39:34;6.90;;;1.50;;
46355;SDS011;32066;49.474;11.106;2022-11-04T12:42:16;4.53;;;1.40;;
46355;SDS011;32066;49.474;11.106;2022-11-04T12:44:52;8.10;;;1.60;;
46355;SDS011;32066;49.474;11.106;2022-11-04T12:47:33;8.40;;;2.20;;
46355;SDS011;32066;49.474;11.106;2022-11-04T12:50:05;8.63;;;1.80;;
46355;SDS011;32066;49.474;11.106;2022-11-04T12:53:08;5.22;;;1.40;;
46355;SDS011;32066;49.474;11.106;2022-11-04T12:55:56;7.88;;;1.52;;
46355;SDS011;32066;49.474;11.106;2022-11-04T12:58:33;5.32;;;1.40;;
46355;SDS011;32066;49.474;11.106;2022-11-04T13:01:07;7.68;;;1.60;;
46355;SDS011;32066;49.474;11.106;2022-11-04T13:03:40;5.97;;;1.67;;
46355;SDS011;32066;49.474;11.106;2022-11-04T13:06:16;8.48;;;1.50;;
46355;SDS011;32066;49.474;11.106;2022-11-04T13:08:48;7.10;;;1.50;;
46355;SDS011;32066;49.474;11.106;2022-11-04T13:11:17;8.27;;;1.40;;
46355;SDS011;32066;49.474;11.106;2022-11-04T13:13:50;7.40;;;1.40;;
46355;SDS011;32066;49.474;11.106;2022-11-04T13:16:22;5.63;;;1.40;;
46355;SDS011;32066;49.474;11.106;2022-11-04T13:18:49;5.35;;;1.58;;
46355;SDS011;32066;49.474;11.106;2022-11-04T13:21:20;6.78;;;1.92;;
46355;SDS011;32066;49.474;11.106;2022-11-04T13:23:53;5.78;;;1.42;;
46355;SDS011;32066;49.474;11.106;2022-11-04T13:26:23;6.68;;;1.45;;
46355;SDS011;32066;49.474;11.106;2022-11-04T13:28:53;5.75;;;1.77;;
46355;SDS011;32066;49.474;11.106;2022-11-04T13:31:29;6.25;;;1.50;;
46355;SDS011;32066;49.474;11.106;2022-11-04T13:34:04;8.10;;;1.42;;
46355;SDS011;32066;49.474;11.106;2022-11-04T13:36:40;7.25;;;1.90;;
46355;SDS011;32066;49.474;11.106;2022-11-04T13:39:14;10.35;;;1.80;;
46355;SDS011;32066;49.474;11.106;2022-11-04T13:41:54;6.30;;;1.83;;
46355;SDS011;32066;49.474;11.106;2022-11-04T13:44:34;6.72;;;2.40;;
46355;SDS011;32066;49.474;11.106;2022-11-04T13:47:04;8.95;;;2.00;;
46355;SDS011;32066;49.474;11.106;2022-11-04T13:49:40;5.57;;;1.58;;
46355;SDS011;32066;49.474;11.106;2022-11-04T13:52:16;7.45;;;1.50;;
46355;SDS011;32066;49.474;11.106;2022-11-04T13:54:43;9.00;;;1.77;;
46355;SDS011;32066;49.474;11.106;2022-11-04T13:57:18;6.22;;;1.73;;
46355;SDS011;32066;49.474;11.106;2022-11-04T14:02:35;6.97;;;1.85;;
46355;SDS011;32066;49.474;11.106;2022-11-04T14:08:22;7.28;;;1.58;;
46355;SDS011;32066;49.474;11.106;2022-11-04T14:11:02;5.72;;;1.60;;
46355;SDS011;32066;49.474;11.106;2022-11-04T14:13:44;8.60;;;1.48;;
46355;SDS011;32066;49.474;11.106;2022-11-04T14:22:20;5.95;;;1.88;;
46355;SDS011;32066;49.474;11.106;2022-11-04T14:24:54;5.75;;;1.58;;
46355;SDS011;32066;49.474;11.106;2022-11-04T14:27:26;7.57;;;2.10;;
46355;SDS011;32066;49.474;11.106;2022-11-04T14:29:59;9.38;;;2.25;;
46355;SDS011;32066;49.474;11.106;2022-11-04T14:32:29;7.75;;;2.00;;
46355;SDS011;32066;49.474;11.106;2022-11-04T14:35:02;6.47;;;1.98;;
46355;SDS011;32066;49.474;11.106;2022-11-04T14:37:32;11.68;;;2.08;;
46355;SDS011;32066;49.474;11.106;2022-11-04T14:40:03;8.15;;;1.92;;
46355;SDS011;32066;49.474;11.106;2022-11-04T14:42:43;10.23;;;1.98;;
46355;SDS011;32066;49.474;11.106;2022-11-04T14:45:14;7.85;;;2.17;;
46355;SDS011;32066;49.474;11.106;2022-11-04T14:47:45;6.82;;;2.28;;
46355;SDS011;32066;49.474;11.106;2022-11-04T14:50:16;7.65;;;2.00;;
46355;SDS011;32066;49.474;11.106;2022-11-04T14:52:46;8.23;;;2.38;;
46355;SDS011;32066;49.474;11.106;2022-11-04T14:55:18;7.13;;;2.42;;
46355;SDS011;32066;49.474;11.106;2022-11-04T14:57:48;8.23;;;2.00;;
46355;SDS011;32066;49.474;11.106;2022-11-04T15:00:18;9.65;;;2.85;;
46355;SDS011;32066;49.474;11.106;2022-11-04T15:03:13;13.35;;;2.33;;
46355;SDS011;32066;49.474;11.106;2022-11-04T15:05:47;9.23;;;1.90;;
46355;SDS011;32066;49.474;11.106;2022-11-04T15:08:24;10.25;;;2.20;;
46355;SDS011;32066;49.474;11.106;2022-11-04T15:11:02;9.45;;;1.90;;
46355;SDS011;32066;49.474;11.106;2022-11-04T15:13:33;9.40;;;2.03;;